Terminal Aerodrome Forecast
Issued by NWS San Angelo, TX

Home | Current Version | Previous Version | Text Only | Print | Product List | Glossary On
Versions: 1 2 3 4 5 6 7 8 9 10 11 12 13
000
FTUS44 KSJT 191128
TAFABI
TAF
KABI 191128Z 1912/2012 18011KT P6SM SCT250
     FM191600 18012G19KT P6SM BKN250
     FM200000 15010KT P6SM SCT060 BKN250
     FM200900 15012KT P6SM VCSH SCT025 BKN060=

USA.gov is the U.S. government's official web portal to all federal, state and local government web resources and services.